sensor_id;sensor_type;location;lat;lon;timestamp;P1;durP1;ratioP1;P2;durP2;ratioP2
62673;SDS011;62269;47.594;17.638;2023-11-22T00:00:13;14.43;;;11.00;;
62673;SDS011;62269;47.594;17.638;2023-11-22T00:01:12;12.88;;;10.50;;
62673;SDS011;62269;47.594;17.638;2023-11-22T00:02:10;12.88;;;11.05;;
62673;SDS011;62269;47.594;17.638;2023-11-22T00:03:08;15.30;;;12.50;;
62673;SDS011;62269;47.594;17.638;2023-11-22T00:04:06;13.10;;;10.70;;
62673;SDS011;62269;47.594;17.638;2023-11-22T00:05:05;14.85;;;11.43;;
62673;SDS011;62269;47.594;17.638;2023-11-22T00:06:04;13.73;;;11.02;;
62673;SDS011;62269;47.594;17.638;2023-11-22T00:07:03;14.07;;;11.57;;
62673;SDS011;62269;47.594;17.638;2023-11-22T00:08:01;14.73;;;11.32;;
62673;SDS011;62269;47.594;17.638;2023-11-22T00:09:00;14.73;;;11.95;;
62673;SDS011;62269;47.594;17.638;2023-11-22T00:09:58;12.65;;;10.85;;
62673;SDS011;62269;47.594;17.638;2023-11-22T00:10:58;13.30;;;10.65;;
62673;SDS011;62269;47.594;17.638;2023-11-22T00:11:56;13.38;;;11.50;;
62673;SDS011;62269;47.594;17.638;2023-11-22T00:12:56;15.00;;;12.00;;
62673;SDS011;62269;47.594;17.638;2023-11-22T00:13:55;14.50;;;11.40;;
62673;SDS011;62269;47.594;17.638;2023-11-22T00:14:54;14.40;;;11.90;;
62673;SDS011;62269;47.594;17.638;2023-11-22T00:15:52;17.67;;;12.05;;
62673;SDS011;62269;47.594;17.638;2023-11-22T00:16:51;13.77;;;11.07;;
62673;SDS011;62269;47.594;17.638;2023-11-22T00:17:49;18.10;;;11.80;;
62673;SDS011;62269;47.594;17.638;2023-11-22T00:18:47;14.80;;;12.10;;
62673;SDS011;62269;47.594;17.638;2023-11-22T00:19:46;16.65;;;12.70;;
62673;SDS011;62269;47.594;17.638;2023-11-22T00:20:44;15.10;;;11.98;;
62673;SDS011;62269;47.594;17.638;2023-11-22T00:21:45;17.10;;;12.35;;
62673;SDS011;62269;47.594;17.638;2023-11-22T00:22:43;16.02;;;11.63;;
62673;SDS011;62269;47.594;17.638;2023-11-22T00:23:44;18.08;;;11.10;;
62673;SDS011;62269;47.594;17.638;2023-11-22T00:24:43;14.90;;;11.07;;
62673;SDS011;62269;47.594;17.638;2023-11-22T00:25:47;13.82;;;10.43;;
62673;SDS011;62269;47.594;17.638;2023-11-22T00:26:44;15.23;;;11.43;;
62673;SDS011;62269;47.594;17.638;2023-11-22T00:27:43;18.52;;;11.90;;
62673;SDS011;62269;47.594;17.638;2023-11-22T00:28:41;15.60;;;12.30;;
62673;SDS011;62269;47.594;17.638;2023-11-22T00:29:38;17.55;;;12.20;;
62673;SDS011;62269;47.594;17.638;2023-11-22T00:30:36;14.77;;;11.77;;
62673;SDS011;62269;47.594;17.638;2023-11-22T00:31:34;15.13;;;12.60;;
62673;SDS011;62269;47.594;17.638;2023-11-22T00:32:33;15.30;;;11.80;;
62673;SDS011;62269;47.594;17.638;2023-11-22T00:33:31;16.50;;;11.35;;
62673;SDS011;62269;47.594;17.638;2023-11-22T00:34:31;10.70;;;8.80;;
62673;SDS011;62269;47.594;17.638;2023-11-22T00:35:29;14.20;;;11.23;;
62673;SDS011;62269;47.594;17.638;2023-11-22T00:36:28;15.73;;;11.60;;
62673;SDS011;62269;47.594;17.638;2023-11-22T00:37:26;14.13;;;11.50;;
62673;SDS011;62269;47.594;17.638;2023-11-22T00:38:23;14.82;;;12.52;;
62673;SDS011;62269;47.594;17.638;2023-11-22T00:39:22;13.00;;;11.30;;
62673;SDS011;62269;47.594;17.638;2023-11-22T00:40:19;13.10;;;11.48;;
62673;SDS011;62269;47.594;17.638;2023-11-22T00:41:17;16.48;;;12.02;;
62673;SDS011;62269;47.594;17.638;2023-11-22T00:42:16;14.77;;;11.80;;
62673;SDS011;62269;47.594;17.638;2023-11-22T00:43:17;16.60;;;11.75;;
62673;SDS011;62269;47.594;17.638;2023-11-22T00:44:15;16.10;;;12.82;;
62673;SDS011;62269;47.594;17.638;2023-11-22T00:45:15;19.27;;;12.15;;
62673;SDS011;62269;47.594;17.638;2023-11-22T00:46:13;13.13;;;11.25;;
62673;SDS011;62269;47.594;17.638;2023-11-22T00:47:12;14.98;;;11.70;;
62673;SDS011;62269;47.594;17.638;2023-11-22T00:48:10;16.10;;;12.30;;
62673;SDS011;62269;47.594;17.638;2023-11-22T00:49:09;17.40;;;12.25;;
62673;SDS011;62269;47.594;17.638;2023-11-22T00:50:07;15.32;;;12.20;;
62673;SDS011;62269;47.594;17.638;2023-11-22T00:51:05;14.75;;;11.63;;
62673;SDS011;62269;47.594;17.638;2023-11-22T00:52:05;14.70;;;12.20;;
62673;SDS011;62269;47.594;17.638;2023-11-22T00:53:05;19.03;;;11.87;;
62673;SDS011;62269;47.594;17.638;2023-11-22T00:54:04;14.87;;;11.30;;
62673;SDS011;62269;47.594;17.638;2023-11-22T00:55:02;13.13;;;11.35;;
62673;SDS011;62269;47.594;17.638;2023-11-22T00:56:00;14.38;;;11.35;;
62673;SDS011;62269;47.594;17.638;2023-11-22T00:56:59;14.38;;;11.35;;
62673;SDS011;62269;47.594;17.638;2023-11-22T00:57:57;16.45;;;11.55;;
62673;SDS011;62269;47.594;17.638;2023-11-22T00:59:00;15.70;;;11.85;;
62673;SDS011;62269;47.594;17.638;2023-11-22T01:00:00;17.20;;;11.73;;
62673;SDS011;62269;47.594;17.638;2023-11-22T01:01:01;17.08;;;12.25;;
62673;SDS011;62269;47.594;17.638;2023-11-22T01:01:59;15.13;;;11.52;;
62673;SDS011;62269;47.594;17.638;2023-11-22T01:02:59;16.30;;;11.02;;
62673;SDS011;62269;47.594;17.638;2023-11-22T01:03:57;14.48;;;11.25;;
62673;SDS011;62269;47.594;17.638;2023-11-22T01:04:55;14.70;;;11.95;;
62673;SDS011;62269;47.594;17.638;2023-11-22T01:05:53;12.35;;;10.80;;
62673;SDS011;62269;47.594;17.638;2023-11-22T01:06:51;15.05;;;11.90;;
62673;SDS011;62269;47.594;17.638;2023-11-22T01:07:49;13.90;;;11.70;;
62673;SDS011;62269;47.594;17.638;2023-11-22T01:08:47;16.02;;;11.23;;
62673;SDS011;62269;47.594;17.638;2023-11-22T01:09:45;19.30;;;11.25;;
62673;SDS011;62269;47.594;17.638;2023-11-22T01:10:43;14.68;;;11.68;;
62673;SDS011;62269;47.594;17.638;2023-11-22T01:11:41;18.77;;;11.38;;
62673;SDS011;62269;47.594;17.638;2023-11-22T01:12:40;15.88;;;10.15;;
62673;SDS011;62269;47.594;17.638;2023-11-22T01:13:39;19.15;;;11.60;;
62673;SDS011;62269;47.594;17.638;2023-11-22T01:14:39;15.05;;;11.40;;
62673;SDS011;62269;47.594;17.638;2023-11-22T01:15:37;15.35;;;11.93;;
62673;SDS011;62269;47.594;17.638;2023-11-22T01:16:36;15.05;;;11.15;;
62673;SDS011;62269;47.594;17.638;2023-11-22T01:17:34;14.82;;;12.00;;
62673;SDS011;62269;47.594;17.638;2023-11-22T01:18:32;14.70;;;11.05;;
62673;SDS011;62269;47.594;17.638;2023-11-22T01:19:32;14.45;;;11.63;;
62673;SDS011;62269;47.594;17.638;2023-11-22T01:20:30;13.60;;;11.65;;
62673;SDS011;62269;47.594;17.638;2023-11-22T01:21:29;15.63;;;11.02;;
62673;SDS011;62269;47.594;17.638;2023-11-22T01:22:27;13.25;;;11.20;;
62673;SDS011;62269;47.594;17.638;2023-11-22T01:23:26;15.45;;;11.98;;
62673;SDS011;62269;47.594;17.638;2023-11-22T01:24:27;14.82;;;11.07;;
62673;SDS011;62269;47.594;17.638;2023-11-22T01:25:26;14.40;;;11.27;;
62673;SDS011;62269;47.594;17.638;2023-11-22T01:26:25;15.75;;;11.32;;
62673;SDS011;62269;47.594;17.638;2023-11-22T01:27:23;14.13;;;11.43;;
62673;SDS011;62269;47.594;17.638;2023-11-22T01:28:21;14.65;;;10.73;;
62673;SDS011;62269;47.594;17.638;2023-11-22T01:29:20;12.77;;;10.57;;
62673;SDS011;62269;47.594;17.638;2023-11-22T01:30:19;13.50;;;10.68;;
62673;SDS011;62269;47.594;17.638;2023-11-22T01:31:17;13.88;;;10.15;;
62673;SDS011;62269;47.594;17.638;2023-11-22T01:32:18;15.25;;;10.75;;
62673;SDS011;62269;47.594;17.638;2023-11-22T01:33:17;12.65;;;10.57;;
62673;SDS011;62269;47.594;17.638;2023-11-22T01:34:15;14.68;;;11.77;;
62673;SDS011;62269;47.594;17.638;2023-11-22T01:35:13;15.82;;;12.52;;
62673;SDS011;62269;47.594;17.638;2023-11-22T01:36:12;15.25;;;11.30;;
62673;SDS011;62269;47.594;17.638;2023-11-22T01:37:12;15.18;;;11.75;;
62673;SDS011;62269;47.594;17.638;2023-11-22T01:38:11;16.62;;;10.65;;
62673;SDS011;62269;47.594;17.638;2023-11-22T01:39:10;13.23;;;11.32;;
62673;SDS011;62269;47.594;17.638;2023-11-22T01:40:10;14.45;;;11.45;;
62673;SDS011;62269;47.594;17.638;2023-11-22T01:41:10;15.07;;;11.10;;
62673;SDS011;62269;47.594;17.638;2023-11-22T01:42:10;13.65;;;8.85;;
62673;SDS011;62269;47.594;17.638;2023-11-22T01:43:08;14.23;;;11.77;;
62673;SDS011;62269;47.594;17.638;2023-11-22T01:44:10;16.60;;;12.43;;
62673;SDS011;62269;47.594;17.638;2023-11-22T01:45:08;14.65;;;10.73;;
62673;SDS011;62269;47.594;17.638;2023-11-22T01:46:07;15.55;;;11.60;;
62673;SDS011;62269;47.594;17.638;2023-11-22T01:47:06;18.27;;;10.93;;
62673;SDS011;62269;47.594;17.638;2023-11-22T01:48:05;12.80;;;10.67;;
62673;SDS011;62269;47.594;17.638;2023-11-22T01:49:07;17.23;;;10.98;;
62673;SDS011;62269;47.594;17.638;2023-11-22T01:50:07;16.02;;;12.45;;
62673;SDS011;62269;47.594;17.638;2023-11-22T01:51:06;16.83;;;12.10;;
62673;SDS011;62269;47.594;17.638;2023-11-22T01:52:05;13.77;;;11.40;;
62673;SDS011;62269;47.594;17.638;2023-11-22T01:53:04;14.02;;;11.60;;
62673;SDS011;62269;47.594;17.638;2023-11-22T01:54:03;14.57;;;11.65;;
62673;SDS011;62269;47.594;17.638;2023-11-22T01:55:02;15.07;;;12.25;;
62673;SDS011;62269;47.594;17.638;2023-11-22T01:56:02;14.20;;;11.57;;
62673;SDS011;62269;47.594;17.638;2023-11-22T01:57:01;16.10;;;11.93;;
62673;SDS011;62269;47.594;17.638;2023-11-22T01:57:59;15.93;;;11.95;;
62673;SDS011;62269;47.594;17.638;2023-11-22T02:00:02;16.23;;;11.02;;
62673;SDS011;62269;47.594;17.638;2023-11-22T02:01:01;15.55;;;11.52;;
62673;SDS011;62269;47.594;17.638;2023-11-22T02:01:59;13.35;;;11.00;;
62673;SDS011;62269;47.594;17.638;2023-11-22T02:02:58;14.10;;;12.37;;
62673;SDS011;62269;47.594;17.638;2023-11-22T02:03:57;16.02;;;11.98;;
62673;SDS011;62269;47.594;17.638;2023-11-22T02:04:56;13.35;;;10.75;;
62673;SDS011;62269;47.594;17.638;2023-11-22T02:05:55;17.20;;;12.73;;
62673;SDS011;62269;47.594;17.638;2023-11-22T02:06:53;16.52;;;11.98;;
62673;SDS011;62269;47.594;17.638;2023-11-22T02:07:52;15.98;;;11.70;;
62673;SDS011;62269;47.594;17.638;2023-11-22T02:08:50;18.42;;;12.48;;
62673;SDS011;62269;47.594;17.638;2023-11-22T02:09:49;15.88;;;12.37;;
62673;SDS011;62269;47.594;17.638;2023-11-22T02:10:57;14.63;;;12.30;;
62673;SDS011;62269;47.594;17.638;2023-11-22T02:11:58;16.92;;;12.57;;
62673;SDS011;62269;47.594;17.638;2023-11-22T02:12:57;14.13;;;11.20;;
62673;SDS011;62269;47.594;17.638;2023-11-22T02:13:57;16.40;;;11.88;;
62673;SDS011;62269;47.594;17.638;2023-11-22T02:14:55;19.30;;;13.55;;
62673;SDS011;62269;47.594;17.638;2023-11-22T02:15:54;14.98;;;12.00;;
62673;SDS011;62269;47.594;17.638;2023-11-22T02:16:53;16.12;;;13.18;;
62673;SDS011;62269;47.594;17.638;2023-11-22T02:17:53;18.45;;;12.70;;
62673;SDS011;62269;47.594;17.638;2023-11-22T02:19:04;14.90;;;12.57;;
62673;SDS011;62269;47.594;17.638;2023-11-22T02:20:04;16.42;;;12.82;;
62673;SDS011;62269;47.594;17.638;2023-11-22T02:21:06;14.70;;;12.30;;
62673;SDS011;62269;47.594;17.638;2023-11-22T02:22:04;16.95;;;13.40;;
62673;SDS011;62269;47.594;17.638;2023-11-22T02:23:09;18.67;;;13.43;;
62673;SDS011;62269;47.594;17.638;2023-11-22T02:24:09;15.88;;;11.70;;
62673;SDS011;62269;47.594;17.638;2023-11-22T02:25:07;18.02;;;12.82;;
62673;SDS011;62269;47.594;17.638;2023-11-22T02:26:08;15.38;;;12.43;;
62673;SDS011;62269;47.594;17.638;2023-11-22T02:27:06;16.05;;;13.43;;
62673;SDS011;62269;47.594;17.638;2023-11-22T02:28:06;19.52;;;12.63;;
62673;SDS011;62269;47.594;17.638;2023-11-22T02:29:05;14.38;;;11.95;;
62673;SDS011;62269;47.594;17.638;2023-11-22T02:30:04;15.40;;;12.27;;
62673;SDS011;62269;47.594;17.638;2023-11-22T02:31:02;16.50;;;12.82;;
62673;SDS011;62269;47.594;17.638;2023-11-22T02:32:01;19.25;;;12.88;;
62673;SDS011;62269;47.594;17.638;2023-11-22T02:33:01;15.20;;;11.55;;
62673;SDS011;62269;47.594;17.638;2023-11-22T02:33:59;15.90;;;11.82;;
62673;SDS011;62269;47.594;17.638;2023-11-22T02:34:58;17.12;;;11.90;;
62673;SDS011;62269;47.594;17.638;2023-11-22T02:35:57;16.05;;;12.00;;
62673;SDS011;62269;47.594;17.638;2023-11-22T02:36:56;14.98;;;12.52;;
62673;SDS011;62269;47.594;17.638;2023-11-22T02:37:59;15.38;;;12.07;;
62673;SDS011;62269;47.594;17.638;2023-11-22T02:38:57;17.50;;;13.30;;
62673;SDS011;62269;47.594;17.638;2023-11-22T02:40:06;18.17;;;12.75;;
62673;SDS011;62269;47.594;17.638;2023-11-22T02:41:12;13.85;;;11.77;;
62673;SDS011;62269;47.594;17.638;2023-11-22T02:42:10;16.55;;;12.55;;
62673;SDS011;62269;47.594;17.638;2023-11-22T02:43:10;15.63;;;12.27;;
62673;SDS011;62269;47.594;17.638;2023-11-22T02:44:09;16.65;;;13.43;;
62673;SDS011;62269;47.594;17.638;2023-11-22T02:45:08;17.08;;;12.57;;
62673;SDS011;62269;47.594;17.638;2023-11-22T02:46:08;18.98;;;13.55;;
62673;SDS011;62269;47.594;17.638;2023-11-22T02:47:06;15.13;;;12.85;;
62673;SDS011;62269;47.594;17.638;2023-11-22T02:48:07;15.15;;;12.55;;
62673;SDS011;62269;47.594;17.638;2023-11-22T02:49:06;19.60;;;13.35;;
62673;SDS011;62269;47.594;17.638;2023-11-22T02:50:06;16.12;;;13.35;;
62673;SDS011;62269;47.594;17.638;2023-11-22T02:51:04;19.33;;;13.62;;
62673;SDS011;62269;47.594;17.638;2023-11-22T02:52:04;21.52;;;14.30;;
62673;SDS011;62269;47.594;17.638;2023-11-22T02:53:03;22.35;;;13.82;;
62673;SDS011;62269;47.594;17.638;2023-11-22T02:54:01;17.15;;;13.18;;
62673;SDS011;62269;47.594;17.638;2023-11-22T02:55:01;17.77;;;13.98;;
62673;SDS011;62269;47.594;17.638;2023-11-22T02:56:00;15.55;;;12.40;;
62673;SDS011;62269;47.594;17.638;2023-11-22T02:56:58;18.52;;;14.07;;
62673;SDS011;62269;47.594;17.638;2023-11-22T02:57:57;16.87;;;13.98;;
62673;SDS011;62269;47.594;17.638;2023-11-22T02:58:56;19.10;;;14.60;;
62673;SDS011;62269;47.594;17.638;2023-11-22T02:59:54;17.05;;;12.40;;
62673;SDS011;62269;47.594;17.638;2023-11-22T03:00:52;17.15;;;13.85;;
62673;SDS011;62269;47.594;17.638;2023-11-22T03:01:54;15.73;;;12.88;;
62673;SDS011;62269;47.594;17.638;2023-11-22T03:02:54;17.00;;;13.10;;
62673;SDS011;62269;47.594;17.638;2023-11-22T03:03:53;16.10;;;13.68;;
62673;SDS011;62269;47.594;17.638;2023-11-22T03:04:51;16.33;;;13.23;;
62673;SDS011;62269;47.594;17.638;2023-11-22T03:05:49;17.90;;;13.25;;
62673;SDS011;62269;47.594;17.638;2023-11-22T03:06:51;16.77;;;12.85;;
62673;SDS011;62269;47.594;17.638;2023-11-22T03:07:49;20.98;;;14.48;;
62673;SDS011;62269;47.594;17.638;2023-11-22T03:08:47;16.48;;;12.52;;
62673;SDS011;62269;47.594;17.638;2023-11-22T03:09:46;15.02;;;12.50;;
62673;SDS011;62269;47.594;17.638;2023-11-22T03:10:44;16.48;;;12.77;;
62673;SDS011;62269;47.594;17.638;2023-11-22T03:11:43;18.10;;;13.68;;
62673;SDS011;62269;47.594;17.638;2023-11-22T03:12:41;16.55;;;13.82;;
62673;SDS011;62269;47.594;17.638;2023-11-22T03:13:40;19.02;;;13.70;;
62673;SDS011;62269;47.594;17.638;2023-11-22T03:14:39;16.77;;;13.80;;
62673;SDS011;62269;47.594;17.638;2023-11-22T03:15:40;15.93;;;13.80;;
62673;SDS011;62269;47.594;17.638;2023-11-22T03:16:39;16.62;;;12.73;;
62673;SDS011;62269;47.594;17.638;2023-11-22T03:17:38;15.90;;;12.73;;
62673;SDS011;62269;47.594;17.638;2023-11-22T03:18:36;17.65;;;12.85;;
62673;SDS011;62269;47.594;17.638;2023-11-22T03:19:35;16.77;;;13.90;;
62673;SDS011;62269;47.594;17.638;2023-11-22T03:20:34;15.85;;;12.37;;
62673;SDS011;62269;47.594;17.638;2023-11-22T03:21:34;16.25;;;12.55;;
62673;SDS011;62269;47.594;17.638;2023-11-22T03:22:32;17.30;;;12.65;;
62673;SDS011;62269;47.594;17.638;2023-11-22T03:23:32;16.23;;;12.88;;
62673;SDS011;62269;47.594;17.638;2023-11-22T03:24:30;16.90;;;12.90;;
62673;SDS011;62269;47.594;17.638;2023-11-22T03:25:29;17.85;;;13.25;;
62673;SDS011;62269;47.594;17.638;2023-11-22T03:26:27;16.77;;;13.13;;
62673;SDS011;62269;47.594;17.638;2023-11-22T03:27:26;16.37;;;13.50;;
62673;SDS011;62269;47.594;17.638;2023-11-22T03:28:24;19.15;;;13.55;;
62673;SDS011;62269;47.594;17.638;2023-11-22T03:29:22;18.20;;;12.50;;
62673;SDS011;62269;47.594;17.638;2023-11-22T03:30:21;20.23;;;14.00;;
62673;SDS011;62269;47.594;17.638;2023-11-22T03:31:19;17.92;;;13.30;;
62673;SDS011;62269;47.594;17.638;2023-11-22T03:32:18;16.02;;;12.52;;
62673;SDS011;62269;47.594;17.638;2023-11-22T03:33:16;15.82;;;13.38;;
62673;SDS011;62269;47.594;17.638;2023-11-22T03:34:15;18.87;;;15.07;;
62673;SDS011;62269;47.594;17.638;2023-11-22T03:35:13;16.12;;;13.07;;
62673;SDS011;62269;47.594;17.638;2023-11-22T03:36:12;18.85;;;13.70;;
62673;SDS011;62269;47.594;17.638;2023-11-22T03:37:11;21.45;;;14.00;;
62673;SDS011;62269;47.594;17.638;2023-11-22T03:38:09;17.27;;;14.68;;
62673;SDS011;62269;47.594;17.638;2023-11-22T03:39:08;21.67;;;15.93;;
62673;SDS011;62269;47.594;17.638;2023-11-22T03:40:07;20.52;;;15.07;;
62673;SDS011;62269;47.594;17.638;2023-11-22T03:41:06;20.52;;;14.95;;
62673;SDS011;62269;47.594;17.638;2023-11-22T03:42:05;18.45;;;14.00;;
62673;SDS011;62269;47.594;17.638;2023-11-22T03:43:03;17.62;;;13.62;;
62673;SDS011;62269;47.594;17.638;2023-11-22T03:44:05;19.17;;;14.70;;
62673;SDS011;62269;47.594;17.638;2023-11-22T03:45:06;21.62;;;13.85;;
62673;SDS011;62269;47.594;17.638;2023-11-22T03:46:05;20.42;;;14.45;;
62673;SDS011;62269;47.594;17.638;2023-11-22T03:47:03;19.50;;;14.68;;
62673;SDS011;62269;47.594;17.638;2023-11-22T03:48:04;20.73;;;14.15;;
62673;SDS011;62269;47.594;17.638;2023-11-22T03:49:03;24.33;;;14.27;;
62673;SDS011;62269;47.594;17.638;2023-11-22T03:50:05;19.98;;;14.98;;
62673;SDS011;62269;47.594;17.638;2023-11-22T03:51:04;20.02;;;15.55;;
62673;SDS011;62269;47.594;17.638;2023-11-22T03:52:02;19.37;;;14.98;;
62673;SDS011;62269;47.594;17.638;2023-11-22T03:53:01;18.92;;;14.27;;
62673;SDS011;62269;47.594;17.638;2023-11-22T03:53:59;17.85;;;14.10;;
62673;SDS011;62269;47.594;17.638;2023-11-22T03:54:58;18.87;;;14.15;;
62673;SDS011;62269;47.594;17.638;2023-11-22T03:55:56;16.45;;;12.98;;
62673;SDS011;62269;47.594;17.638;2023-11-22T03:56:56;19.77;;;15.10;;
62673;SDS011;62269;47.594;17.638;2023-11-22T03:57:54;18.90;;;14.70;;
62673;SDS011;62269;47.594;17.638;2023-11-22T03:58:52;17.92;;;14.32;;
62673;SDS011;62269;47.594;17.638;2023-11-22T03:59:50;23.30;;;15.27;;
62673;SDS011;62269;47.594;17.638;2023-11-22T04:00:48;19.77;;;14.73;;
62673;SDS011;62269;47.594;17.638;2023-11-22T04:01:49;21.37;;;15.75;;
62673;SDS011;62269;47.594;17.638;2023-11-22T04:02:48;22.30;;;15.57;;
62673;SDS011;62269;47.594;17.638;2023-11-22T04:03:46;22.92;;;16.48;;
62673;SDS011;62269;47.594;17.638;2023-11-22T04:04:48;24.35;;;17.42;;
62673;SDS011;62269;47.594;17.638;2023-11-22T04:05:46;26.45;;;18.90;;
62673;SDS011;62269;47.594;17.638;2023-11-22T04:06:44;35.60;;;22.37;;
62673;SDS011;62269;47.594;17.638;2023-11-22T04:07:42;32.67;;;20.00;;
62673;SDS011;62269;47.594;17.638;2023-11-22T04:08:41;31.70;;;21.80;;
62673;SDS011;62269;47.594;17.638;2023-11-22T04:09:40;29.33;;;20.52;;
62673;SDS011;62269;47.594;17.638;2023-11-22T04:10:39;28.92;;;20.92;;
62673;SDS011;62269;47.594;17.638;2023-11-22T04:11:38;31.33;;;22.30;;
62673;SDS011;62269;47.594;17.638;2023-11-22T04:12:37;30.62;;;20.83;;
62673;SDS011;62269;47.594;17.638;2023-11-22T04:13:36;29.08;;;20.92;;
62673;SDS011;62269;47.594;17.638;2023-11-22T04:14:34;30.33;;;21.55;;
62673;SDS011;62269;47.594;17.638;2023-11-22T04:15:33;31.52;;;22.08;;
62673;SDS011;62269;47.594;17.638;2023-11-22T04:16:32;28.48;;;20.58;;
62673;SDS011;62269;47.594;17.638;2023-11-22T04:17:31;29.58;;;21.15;;
62673;SDS011;62269;47.594;17.638;2023-11-22T04:18:30;29.00;;;20.62;;
62673;SDS011;62269;47.594;17.638;2023-11-22T04:19:29;32.25;;;21.05;;
62673;SDS011;62269;47.594;17.638;2023-11-22T04:20:27;30.90;;;20.55;;
62673;SDS011;62269;47.594;17.638;2023-11-22T04:21:26;29.98;;;20.50;;
62673;SDS011;62269;47.594;17.638;2023-11-22T04:22:24;27.73;;;19.42;;
62673;SDS011;62269;47.594;17.638;2023-11-22T04:23:23;26.27;;;20.00;;
62673;SDS011;62269;47.594;17.638;2023-11-22T04:24:21;28.30;;;19.37;;
62673;SDS011;62269;47.594;17.638;2023-11-22T04:25:19;26.92;;;19.48;;
62673;SDS011;62269;47.594;17.638;2023-11-22T04:26:18;30.42;;;20.08;;
62673;SDS011;62269;47.594;17.638;2023-11-22T04:27:17;28.48;;;19.85;;
62673;SDS011;62269;47.594;17.638;2023-11-22T04:28:15;28.95;;;20.15;;
62673;SDS011;62269;47.594;17.638;2023-11-22T04:29:14;26.45;;;20.65;;
62673;SDS011;62269;47.594;17.638;2023-11-22T04:30:13;29.40;;;19.50;;
62673;SDS011;62269;47.594;17.638;2023-11-22T04:31:14;25.92;;;18.77;;
62673;SDS011;62269;47.594;17.638;2023-11-22T04:32:13;25.42;;;19.40;;
62673;SDS011;62269;47.594;17.638;2023-11-22T04:33:12;25.88;;;18.02;;
62673;SDS011;62269;47.594;17.638;2023-11-22T04:34:11;25.33;;;18.58;;
62673;SDS011;62269;47.594;17.638;2023-11-22T04:35:09;26.73;;;18.77;;
62673;SDS011;62269;47.594;17.638;2023-11-22T04:36:08;23.00;;;17.02;;
62673;SDS011;62269;47.594;17.638;2023-11-22T04:37:06;27.37;;;19.77;;
62673;SDS011;62269;47.594;17.638;2023-11-22T04:38:05;26.15;;;17.48;;
62673;SDS011;62269;47.594;17.638;2023-11-22T04:39:03;27.20;;;19.42;;
62673;SDS011;62269;47.594;17.638;2023-11-22T04:40:04;24.75;;;18.08;;
62673;SDS011;62269;47.594;17.638;2023-11-22T04:41:05;21.52;;;16.92;;
62673;SDS011;62269;47.594;17.638;2023-11-22T04:42:05;26.00;;;17.58;;
62673;SDS011;62269;47.594;17.638;2023-11-22T04:43:03;23.12;;;16.67;;
62673;SDS011;62269;47.594;17.638;2023-11-22T04:44:02;23.15;;;16.77;;
62673;SDS011;62269;47.594;17.638;2023-11-22T04:45:01;23.92;;;18.17;;
62673;SDS011;62269;47.594;17.638;2023-11-22T04:45:59;23.87;;;17.37;;
62673;SDS011;62269;47.594;17.638;2023-11-22T04:46:58;21.73;;;16.62;;
62673;SDS011;62269;47.594;17.638;2023-11-22T04:47:56;23.25;;;16.25;;
62673;SDS011;62269;47.594;17.638;2023-11-22T04:48:55;20.88;;;14.95;;
62673;SDS011;62269;47.594;17.638;2023-11-22T04:49:56;20.02;;;14.90;;
62673;SDS011;62269;47.594;17.638;2023-11-22T04:50:55;21.90;;;15.38;;
62673;SDS011;62269;47.594;17.638;2023-11-22T04:52:14;21.12;;;14.48;;
62673;SDS011;62269;47.594;17.638;2023-11-22T04:53:13;19.15;;;14.38;;
62673;SDS011;62269;47.594;17.638;2023-11-22T04:54:12;18.23;;;14.45;;
62673;SDS011;62269;47.594;17.638;2023-11-22T04:55:10;18.42;;;14.00;;
62673;SDS011;62269;47.594;17.638;2023-11-22T04:56:08;16.25;;;13.65;;
62673;SDS011;62269;47.594;17.638;2023-11-22T04:57:07;17.90;;;13.07;;
62673;SDS011;62269;47.594;17.638;2023-11-22T04:58:06;19.35;;;13.05;;
62673;SDS011;62269;47.594;17.638;2023-11-22T04:59:04;18.90;;;13.27;;
62673;SDS011;62269;47.594;17.638;2023-11-22T05:00:02;16.48;;;12.57;;
62673;SDS011;62269;47.594;17.638;2023-11-22T05:01:03;17.98;;;12.93;;
62673;SDS011;62269;47.594;17.638;2023-11-22T05:02:02;16.62;;;11.70;;
62673;SDS011;62269;47.594;17.638;2023-11-22T05:03:00;14.82;;;12.02;;
62673;SDS011;62269;47.594;17.638;2023-11-22T05:03:59;13.30;;;11.52;;
62673;SDS011;62269;47.594;17.638;2023-11-22T05:04:58;16.17;;;12.13;;
62673;SDS011;62269;47.594;17.638;2023-11-22T05:05:56;13.60;;;10.88;;
62673;SDS011;62269;47.594;17.638;2023-11-22T05:06:55;14.48;;;11.35;;
62673;SDS011;62269;47.594;17.638;2023-11-22T05:07:57;14.40;;;11.32;;
62673;SDS011;62269;47.594;17.638;2023-11-22T05:08:55;14.18;;;11.25;;
62673;SDS011;62269;47.594;17.638;2023-11-22T05:09:54;14.02;;;10.68;;
62673;SDS011;62269;47.594;17.638;2023-11-22T05:10:52;14.00;;;9.95;;
62673;SDS011;62269;47.594;17.638;2023-11-22T05:11:52;11.73;;;9.50;;
62673;SDS011;62269;47.594;17.638;2023-11-22T05:12:50;13.00;;;9.73;;
62673;SDS011;62269;47.594;17.638;2023-11-22T05:13:48;12.80;;;10.18;;
62673;SDS011;62269;47.594;17.638;2023-11-22T05:14:46;12.15;;;9.55;;
62673;SDS011;62269;47.594;17.638;2023-11-22T05:15:45;12.30;;;9.13;;
62673;SDS011;62269;47.594;17.638;2023-11-22T05:16:43;11.05;;;8.98;;
62673;SDS011;62269;47.594;17.638;2023-11-22T05:17:42;12.10;;;8.40;;
62673;SDS011;62269;47.594;17.638;2023-11-22T05:18:41;9.63;;;8.10;;
62673;SDS011;62269;47.594;17.638;2023-11-22T05:19:39;11.50;;;8.32;;
62673;SDS011;62269;47.594;17.638;2023-11-22T05:20:38;9.20;;;7.65;;
62673;SDS011;62269;47.594;17.638;2023-11-22T05:21:35;11.57;;;8.65;;
62673;SDS011;62269;47.594;17.638;2023-11-22T05:22:33;10.55;;;8.05;;
62673;SDS011;62269;47.594;17.638;2023-11-22T05:23:30;12.68;;;8.38;;
62673;SDS011;62269;47.594;17.638;2023-11-22T05:24:34;9.90;;;8.10;;
62673;SDS011;62269;47.594;17.638;2023-11-22T05:25:31;11.10;;;7.85;;
62673;SDS011;62269;47.594;17.638;2023-11-22T05:26:29;8.52;;;7.15;;
62673;SDS011;62269;47.594;17.638;2023-11-22T05:27:27;8.55;;;7.12;;
62673;SDS011;62269;47.594;17.638;2023-11-22T05:28:25;8.05;;;7.18;;
62673;SDS011;62269;47.594;17.638;2023-11-22T05:29:23;9.23;;;7.00;;
62673;SDS011;62269;47.594;17.638;2023-11-22T05:30:25;9.63;;;7.85;;
62673;SDS011;62269;47.594;17.638;2023-11-22T05:31:23;10.40;;;7.30;;
62673;SDS011;62269;47.594;17.638;2023-11-22T05:32:20;9.88;;;8.07;;
62673;SDS011;62269;47.594;17.638;2023-11-22T05:33:18;8.18;;;6.72;;
62673;SDS011;62269;47.594;17.638;2023-11-22T05:34:16;8.38;;;7.12;;
62673;SDS011;62269;47.594;17.638;2023-11-22T05:35:13;9.32;;;7.28;;
62673;SDS011;62269;47.594;17.638;2023-11-22T05:36:11;9.48;;;6.97;;
62673;SDS011;62269;47.594;17.638;2023-11-22T05:37:09;7.95;;;6.62;;
62673;SDS011;62269;47.594;17.638;2023-11-22T05:38:09;8.05;;;6.68;;
62673;SDS011;62269;47.594;17.638;2023-11-22T05:39:07;9.82;;;7.47;;
62673;SDS011;62269;47.594;17.638;2023-11-22T05:40:05;10.10;;;6.80;;
62673;SDS011;62269;47.594;17.638;2023-11-22T05:41:06;7.75;;;6.37;;
62673;SDS011;62269;47.594;17.638;2023-11-22T05:42:03;8.70;;;6.78;;